Time;durP1;ratioP1;P1;durP2;ratioP2;P2;SDS_P1;SDS_P2;PMS_P1;PMS_P2;Temp;Humidity;BMP_temperature;BMP_pressure;BME280_temperature;BME280_humidity;BME280_pressure;Samples;Min_cycle;Max_cycle;Signal;HPM_P1;HPM_P2
2022/04/30 00:01:43;;;;;;;10.57;9.48;;;;;;;;;;5075433;28;20051;-88
2022/04/30 00:04:10;;;;;;;12.35;9.18;;;;;;;;;;5073447;28;20102;-89
2022/04/30 00:06:38;;;;;;;16.20;9.80;;;;;;;;;;5073078;28;20048;-88
2022/04/30 00:09:05;;;;;;;11.20;8.90;;;;;;;;;;5073094;28;20080;-89
2022/04/30 00:11:32;;;;;;;9.00;8.20;;;;;;;;;;5073025;28;20053;-90
2022/04/30 00:13:59;;;;;;;12.85;9.18;;;;;;;;;;5072657;28;20064;-89
2022/04/30 00:16:26;;;;;;;11.80;8.85;;;;;;;;;;5072754;28;20478;-89
2022/04/30 00:18:56;;;;;;;11.20;9.88;;;;;;;;;;5074135;28;20048;-89
2022/04/30 00:21:23;;;;;;;10.95;9.95;;;;;;;;;;5074100;28;20071;-89
2022/04/30 00:23:50;;;;;;;15.32;9.98;;;;;;;;;;5072447;28;20096;-89
2022/04/30 00:26:17;;;;;;;16.25;10.18;;;;;;;;;;5072979;28;20384;-88
2022/04/30 00:28:45;;;;;;;14.73;10.38;;;;;;;;;;5077968;28;20087;-88
2022/04/30 00:31:12;;;;;;;12.00;9.63;;;;;;;;;;5072999;28;20482;-88
2022/04/30 00:33:39;;;;;;;13.00;9.82;;;;;;;;;;5072499;28;20166;-89
2022/04/30 00:36:06;;;;;;;12.68;9.25;;;;;;;;;;5072692;28;20127;-89
2022/04/30 00:38:33;;;;;;;10.55;9.55;;;;;;;;;;5072573;28;20091;-89
2022/04/30 00:41:01;;;;;;;11.77;10.35;;;;;;;;;;5072447;28;20475;-89
2022/04/30 00:43:29;;;;;;;12.20;11.00;;;;;;;;;;5072759;28;20140;-89
2022/04/30 00:45:56;;;;;;;12.63;10.55;;;;;;;;;;5072129;28;20080;-88
2022/04/30 00:48:23;;;;;;;12.75;10.73;;;;;;;;;;5073625;28;20057;-88
2022/04/30 00:50:51;;;;;;;12.23;10.10;;;;;;;;;;5072473;28;20080;-87
2022/04/30 00:53:19;;;;;;;17.25;10.55;;;;;;;;;;5072585;28;20045;-89
2022/04/30 00:55:47;;;;;;;13.25;10.35;;;;;;;;;;5076035;28;20048;-88
2022/04/30 00:58:15;;;;;;;12.30;10.05;;;;;;;;;;5072460;28;20053;-89
2022/04/30 01:00:43;;;;;;;13.60;10.43;;;;;;;;;;5072032;28;20064;-89
2022/04/30 01:03:11;;;;;;;14.63;10.05;;;;;;;;;;5072247;28;20052;-89
2022/04/30 01:05:39;;;;;;;12.60;10.07;;;;;;;;;;5072899;28;20083;-85
2022/04/30 01:08:06;;;;;;;11.43;9.75;;;;;;;;;;5073282;28;20053;-86
2022/04/30 01:10:48;;;;;;;13.88;9.80;;;;;;;;;;5072848;28;20495;-86
2022/04/30 01:13:16;;;;;;;12.48;9.88;;;;;;;;;;5072694;28;20080;-85
2022/04/30 01:15:44;;;;;;;11.23;10.10;;;;;;;;;;5072955;28;20055;-86
2022/04/30 01:18:17;;;;;;;14.65;9.30;;;;;;;;;;5075418;28;20056;-86
2022/04/30 01:20:48;;;;;;;12.85;10.60;;;;;;;;;;5073709;28;20518;-87
2022/04/30 01:23:16;;;;;;;15.52;10.43;;;;;;;;;;5073494;28;20086;-86
2022/04/30 01:25:44;;;;;;;11.68;10.23;;;;;;;;;;5074093;28;20102;-86
2022/04/30 01:28:11;;;;;;;14.70;10.35;;;;;;;;;;5074275;28;20071;-87
2022/04/30 01:30:48;;;;;;;11.23;10.13;;;;;;;;;;5074550;28;20052;-86
2022/04/30 01:39:26;;;;;;;15.05;10.70;;;;;;;;;;5076435;28;20083;-86
2022/04/30 01:41:54;;;;;;;13.77;10.98;;;;;;;;;;5040230;28;20072;-86
2022/04/30 01:44:21;;;;;;;18.30;11.70;;;;;;;;;;5040437;28;20425;-88
2022/04/30 01:46:49;;;;;;;15.32;11.50;;;;;;;;;;5059352;28;20076;-87
2022/04/30 01:49:29;;;;;;;12.10;10.10;;;;;;;;;;5037924;28;20045;-86
2022/04/30 01:51:56;;;;;;;11.40;10.25;;;;;;;;;;5036678;28;20107;-85
2022/04/30 01:54:23;;;;;;;11.95;10.75;;;;;;;;;;5036118;28;20080;-88
2022/04/30 01:56:52;;;;;;;16.00;10.60;;;;;;;;;;5037536;28;20076;-88
2022/04/30 01:59:19;;;;;;;14.80;10.05;;;;;;;;;;5037489;28;20084;-88
2022/04/30 02:01:46;;;;;;;14.95;10.50;;;;;;;;;;5036701;28;20041;-88
2022/04/30 02:04:19;;;;;;;13.02;10.40;;;;;;;;;;5036505;28;20049;-87
2022/04/30 02:06:46;;;;;;;13.48;10.30;;;;;;;;;;5036647;28;20088;-88
2022/04/30 02:09:15;;;;;;;14.98;10.93;;;;;;;;;;5054166;28;20148;-88
2022/04/30 02:11:57;;;;;;;12.68;10.68;;;;;;;;;;5054569;28;20111;-88
2022/04/30 02:14:26;;;;;;;18.75;11.27;;;;;;;;;;5036589;28;20072;-88
2022/04/30 02:16:53;;;;;;;14.25;11.18;;;;;;;;;;5036323;28;20131;-88
2022/04/30 02:19:21;;;;;;;15.88;10.82;;;;;;;;;;5036541;28;20127;-88
2022/04/30 02:21:50;;;;;;;15.00;10.93;;;;;;;;;;5036361;28;20525;-85
2022/04/30 02:24:17;;;;;;;14.55;11.73;;;;;;;;;;5037057;28;20152;-85
2022/04/30 02:26:45;;;;;;;11.93;10.32;;;;;;;;;;5039293;28;20106;-85
2022/04/30 02:29:14;;;;;;;13.70;11.52;;;;;;;;;;5058255;28;20045;-86
2022/04/30 02:31:41;;;;;;;13.68;10.75;;;;;;;;;;5040650;28;20052;-85
2022/04/30 02:34:08;;;;;;;18.00;11.40;;;;;;;;;;5040966;28;20044;-86
2022/04/30 02:36:36;;;;;;;14.30;12.02;;;;;;;;;;5042538;28;20107;-85
2022/04/30 02:39:03;;;;;;;16.10;11.27;;;;;;;;;;5042076;28;20076;-85
2022/04/30 02:41:30;;;;;;;17.30;11.43;;;;;;;;;;5070494;28;20140;-86
2022/04/30 02:43:58;;;;;;;18.95;11.18;;;;;;;;;;5078947;28;20084;-85
2022/04/30 02:46:25;;;;;;;17.05;11.98;;;;;;;;;;5078122;28;20052;-85
2022/04/30 02:48:52;;;;;;;13.27;11.63;;;;;;;;;;5077972;28;20045;-86
2022/04/30 02:51:19;;;;;;;13.35;11.45;;;;;;;;;;5078690;28;20048;-86
2022/04/30 02:53:48;;;;;;;17.50;11.63;;;;;;;;;;5080113;28;20482;-86
2022/04/30 02:56:15;;;;;;;13.85;11.27;;;;;;;;;;5080236;28;20051;-86
2022/04/30 03:01:28;;;;;;;13.63;10.70;;;;;;;;;;5081091;28;20040;-86
2022/04/30 03:03:59;;;;;;;13.73;10.20;;;;;;;;;;5080559;28;20048;-86
2022/04/30 03:06:26;;;;;;;16.13;11.13;;;;;;;;;;5083240;28;20135;-86
2022/04/30 03:08:56;;;;;;;15.18;10.93;;;;;;;;;;5078027;28;20056;-85
2022/04/30 03:11:23;;;;;;;14.38;11.57;;;;;;;;;;5076043;28;20131;-84
2022/04/30 03:13:50;;;;;;;14.30;10.88;;;;;;;;;;5076545;28;20502;-85
2022/04/30 03:22:21;;;;;;;13.20;11.60;;;;;;;;;;5080618;28;20135;-85
2022/04/30 03:24:48;;;;;;;14.10;11.18;;;;;;;;;;5078744;28;20127;-85
2022/04/30 03:27:20;;;;;;;14.20;10.82;;;;;;;;;;5078285;28;20053;-85
2022/04/30 03:29:48;;;;;;;14.40;12.00;;;;;;;;;;5077213;28;20044;-85
2022/04/30 03:32:15;;;;;;;16.38;11.68;;;;;;;;;;5075731;28;20076;-85
2022/04/30 03:34:42;;;;;;;13.75;12.32;;;;;;;;;;5075366;28;20044;-86
2022/04/30 03:37:16;;;;;;;15.85;12.65;;;;;;;;;;5075439;28;20049;-87
2022/04/30 03:39:44;;;;;;;13.57;12.05;;;;;;;;;;5078036;28;20131;-87
2022/04/30 03:42:11;;;;;;;14.27;12.27;;;;;;;;;;5042638;28;20045;-87
2022/04/30 03:44:39;;;;;;;15.80;12.00;;;;;;;;;;5042876;28;20492;-87
2022/04/30 03:47:07;;;;;;;13.48;12.07;;;;;;;;;;5039916;28;20049;-86
2022/04/30 03:49:35;;;;;;;13.98;11.73;;;;;;;;;;5040699;28;20103;-87
2022/04/30 03:52:02;;;;;;;17.58;12.93;;;;;;;;;;5040926;28;20140;-87
2022/04/30 03:54:30;;;;;;;14.70;12.63;;;;;;;;;;5042128;28;20049;-87
2022/04/30 03:56:57;;;;;;;16.23;12.40;;;;;;;;;;5043363;28;20455;-87
2022/04/30 03:59:24;;;;;;;16.40;12.38;;;;;;;;;;5042438;28;20072;-87
2022/04/30 04:01:51;;;;;;;15.85;13.48;;;;;;;;;;5059850;28;20128;-87
2022/04/30 04:04:19;;;;;;;44.60;22.95;;;;;;;;;;5041629;28;20059;-87
2022/04/30 04:06:47;;;;;;;21.30;15.63;;;;;;;;;;5041140;28;20479;-87
2022/04/30 04:09:14;;;;;;;19.35;14.98;;;;;;;;;;5042599;28;20534;-87
2022/04/30 04:11:42;;;;;;;22.88;14.93;;;;;;;;;;5042194;28;20048;-86
2022/04/30 04:19:56;;;;;;;19.88;12.55;;;;;;;;;;5060165;28;20041;-87
2022/04/30 04:22:23;;;;;;;14.02;12.27;;;;;;;;;;5060436;28;20048;-87
2022/04/30 04:27:36;;;;;;;17.60;12.65;;;;;;;;;;5059044;28;20065;-87
2022/04/30 04:30:03;;;;;;;15.50;12.27;;;;;;;;;;5039469;28;20526;-86
2022/04/30 04:32:30;;;;;;;15.85;12.00;;;;;;;;;;5039369;28;20049;-87
2022/04/30 04:34:58;;;;;;;13.23;11.57;;;;;;;;;;5040259;28;20080;-87
2022/04/30 04:37:25;;;;;;;14.35;11.63;;;;;;;;;;5040597;28;20076;-86
2022/04/30 04:39:52;;;;;;;15.65;12.55;;;;;;;;;;5039574;28;20103;-86
2022/04/30 04:42:19;;;;;;;15.27;13.57;;;;;;;;;;5056444;28;20076;-87
2022/04/30 04:44:47;;;;;;;15.23;13.43;;;;;;;;;;5039888;28;20053;-86
2022/04/30 04:47:14;;;;;;;15.15;13.30;;;;;;;;;;5037023;28;20503;-86
2022/04/30 04:49:42;;;;;;;15.18;12.23;;;;;;;;;;5054730;28;20420;-87
2022/04/30 04:52:10;;;;;;;13.40;11.63;;;;;;;;;;5057713;28;20068;-88
2022/04/30 04:54:42;;;;;;;13.27;11.75;;;;;;;;;;5040263;28;20103;-88
2022/04/30 04:57:10;;;;;;;12.50;11.23;;;;;;;;;;5040108;28;20049;-87
2022/04/30 04:59:38;;;;;;;14.23;11.38;;;;;;;;;;5037609;28;20385;-87
2022/04/30 05:02:05;;;;;;;14.45;11.82;;;;;;;;;;5036181;28;20496;-87
2022/04/30 05:04:33;;;;;;;14.13;11.32;;;;;;;;;;5053938;28;20071;-87
2022/04/30 05:07:01;;;;;;;14.60;11.32;;;;;;;;;;5036069;28;20088;-87
2022/04/30 05:09:31;;;;;;;12.95;10.77;;;;;;;;;;5036456;28;20462;-87
2022/04/30 05:12:01;;;;;;;17.23;10.63;;;;;;;;;;5038245;28;20083;-87
2022/04/30 05:14:32;;;;;;;12.35;10.18;;;;;;;;;;5038964;28;20044;-88
2022/04/30 05:17:00;;;;;;;10.38;9.38;;;;;;;;;;5039785;28;20123;-88
2022/04/30 05:19:33;;;;;;;10.88;9.77;;;;;;;;;;5056312;28;20064;-87
2022/04/30 05:22:00;;;;;;;11.32;9.50;;;;;;;;;;5034448;28;20558;-87
2022/04/30 05:24:28;;;;;;;11.63;9.35;;;;;;;;;;5035294;28;20099;-88
2022/04/30 05:26:55;;;;;;;11.68;10.00;;;;;;;;;;5035674;28;20053;-88
2022/04/30 05:29:23;;;;;;;11.93;10.23;;;;;;;;;;5037224;28;20056;-88
2022/04/30 05:31:50;;;;;;;10.82;9.75;;;;;;;;;;5035268;28;20060;-88
2022/04/30 05:34:23;;;;;;;11.60;9.70;;;;;;;;;;5023291;28;20102;-88
2022/04/30 05:36:52;;;;;;;13.57;9.80;;;;;;;;;;5038664;28;20057;-88
2022/04/30 05:39:19;;;;;;;11.40;10.20;;;;;;;;;;5037390;28;20088;-88
2022/04/30 05:41:46;;;;;;;11.35;9.60;;;;;;;;;;5036243;28;20132;-88
2022/04/30 05:44:14;;;;;;;10.50;9.27;;;;;;;;;;5036667;28;20053;-88
2022/04/30 05:46:48;;;;;;;14.13;9.63;;;;;;;;;;5028939;28;20572;-88
2022/04/30 05:49:15;;;;;;;12.52;9.80;;;;;;;;;;5033210;28;20059;-88
2022/04/30 05:51:44;;;;;;;12.75;8.88;;;;;;;;;;5036703;28;20488;-88
2022/04/30 05:54:12;;;;;;;11.85;9.40;;;;;;;;;;5036672;28;20049;-87
2022/04/30 05:56:39;;;;;;;11.18;10.07;;;;;;;;;;5036232;28;20068;-87
2022/04/30 05:59:06;;;;;;;15.32;10.63;;;;;;;;;;5053794;28;20045;-88
2022/04/30 06:01:33;;;;;;;15.55;10.52;;;;;;;;;;5038599;28;20045;-87
2022/04/30 06:04:02;;;;;;;28.20;20.65;;;;;;;;;;5040427;28;20135;-84
2022/04/30 06:06:29;;;;;;;18.75;13.07;;;;;;;;;;5040068;28;20083;-85
2022/04/30 06:08:59;;;;;;;19.10;13.80;;;;;;;;;;5040294;28;20049;-85
2022/04/30 06:11:26;;;;;;;23.73;18.05;;;;;;;;;;5040070;28;20471;-84
2022/04/30 06:13:53;;;;;;;16.10;12.50;;;;;;;;;;5039885;28;20483;-83
2022/04/30 06:16:24;;;;;;;14.68;9.80;;;;;;;;;;5040206;28;20084;-83
2022/04/30 06:18:51;;;;;;;10.25;9.13;;;;;;;;;;5058159;28;20088;-83
2022/04/30 06:21:38;;;;;;;9.32;7.10;;;;;;;;;;5035209;28;20446;-83
2022/04/30 06:24:05;;;;;;;16.45;10.32;;;;;;;;;;5057632;28;20056;-83
2022/04/30 06:26:33;;;;;;;10.27;7.28;;;;;;;;;;5039774;28;20076;-83
2022/04/30 06:29:01;;;;;;;11.35;8.20;;;;;;;;;;5039788;28;20057;-83
2022/04/30 06:31:28;;;;;;;12.52;8.25;;;;;;;;;;5039736;28;20115;-82
2022/04/30 06:33:56;;;;;;;10.52;7.63;;;;;;;;;;5040353;28;20491;-83
2022/04/30 06:36:23;;;;;;;12.45;7.20;;;;;;;;;;5039656;28;20075;-83
2022/04/30 06:38:50;;;;;;;14.77;8.20;;;;;;;;;;5039238;28;20136;-85
2022/04/30 06:41:19;;;;;;;10.20;7.95;;;;;;;;;;5058641;28;20076;-83
2022/04/30 06:43:50;;;;;;;12.70;7.15;;;;;;;;;;5076975;28;20143;-82
2022/04/30 06:46:17;;;;;;;11.05;7.97;;;;;;;;;;5074813;28;20057;-83
2022/04/30 06:48:45;;;;;;;10.13;7.38;;;;;;;;;;5074982;28;20048;-83
2022/04/30 06:51:12;;;;;;;12.60;7.80;;;;;;;;;;5076383;28;20163;-83
2022/04/30 06:59:13;;;;;;;7.25;6.18;;;;;;;;;;5080805;28;20103;-83
2022/04/30 07:01:59;;;;;;;9.73;6.18;;;;;;;;;;5083949;28;20438;-83
2022/04/30 07:04:29;;;;;;;13.10;7.03;;;;;;;;;;5075350;28;20044;-83
2022/04/30 07:07:15;;;;;;;13.38;6.75;;;;;;;;;;5075268;28;20055;-82
2022/04/30 07:09:42;;;;;;;9.70;6.50;;;;;;;;;;5075265;28;20131;-81
2022/04/30 07:12:29;;;;;;;9.93;6.32;;;;;;;;;;5076125;28;20459;-82
2022/04/30 07:14:56;;;;;;;9.77;6.00;;;;;;;;;;5073747;28;20080;-81
2022/04/30 07:17:23;;;;;;;12.70;6.63;;;;;;;;;;5069891;28;20068;-83
2022/04/30 07:19:50;;;;;;;11.10;6.60;;;;;;;;;;5064124;28;20037;-81
2022/04/30 07:22:25;;;;;;;14.18;7.03;;;;;;;;;;5062485;28;20127;-83
2022/04/30 07:24:52;;;;;;;10.00;6.28;;;;;;;;;;5060759;28;20068;-81
2022/04/30 07:27:27;;;;;;;7.97;6.25;;;;;;;;;;5059164;28;20049;-83
2022/04/30 07:29:54;;;;;;;7.82;6.57;;;;;;;;;;5056025;28;20132;-82
2022/04/30 07:32:21;;;;;;;10.52;6.45;;;;;;;;;;5056154;28;20056;-83
2022/04/30 07:34:55;;;;;;;14.57;7.50;;;;;;;;;;5055003;28;20045;-81
2022/04/30 07:37:22;;;;;;;11.18;7.63;;;;;;;;;;5055220;28;20068;-83
2022/04/30 07:39:58;;;;;;;9.93;7.85;;;;;;;;;;5055615;28;20045;-83
2022/04/30 07:42:25;;;;;;;10.35;7.82;;;;;;;;;;5055560;28;20499;-82
2022/04/30 07:44:59;;;;;;;13.25;8.40;;;;;;;;;;5055641;28;20468;-81
2022/04/30 07:47:26;;;;;;;11.77;8.57;;;;;;;;;;5055888;28;20048;-82
2022/04/30 07:49:54;;;;;;;12.90;7.78;;;;;;;;;;5056142;28;20049;-83
2022/04/30 07:52:21;;;;;;;11.35;8.07;;;;;;;;;;5056411;28;20053;-83
2022/04/30 07:54:50;;;;;;;11.63;8.60;;;;;;;;;;5057258;28;20471;-83
2022/04/30 07:57:17;;;;;;;13.07;8.32;;;;;;;;;;5055236;28;20132;-82
2022/04/30 07:59:46;;;;;;;11.70;8.27;;;;;;;;;;5056242;28;20087;-83
2022/04/30 08:02:13;;;;;;;15.02;9.13;;;;;;;;;;5055981;28;20503;-83
2022/04/30 08:04:40;;;;;;;13.48;8.98;;;;;;;;;;5056570;28;20056;-83
2022/04/30 08:07:16;;;;;;;13.75;8.68;;;;;;;;;;5056697;28;20048;-83
2022/04/30 08:09:43;;;;;;;9.20;7.85;;;;;;;;;;5057619;28;20393;-84
2022/04/30 08:12:11;;;;;;;9.88;8.10;;;;;;;;;;5059289;28;20049;-85
2022/04/30 08:14:38;;;;;;;11.40;8.07;;;;;;;;;;5059006;28;20073;-85
2022/04/30 08:17:05;;;;;;;13.30;8.48;;;;;;;;;;5060637;28;20060;-85
2022/04/30 08:19:33;;;;;;;11.40;7.75;;;;;;;;;;5063525;28;20092;-86
2022/04/30 08:22:04;;;;;;;12.88;8.25;;;;;;;;;;5055915;28;20523;-82
2022/04/30 08:24:41;;;;;;;10.95;7.03;;;;;;;;;;5058656;28;20053;-83
2022/04/30 08:27:08;;;;;;;12.63;7.72;;;;;;;;;;5062843;28;20090;-84
2022/04/30 08:29:35;;;;;;;9.25;6.93;;;;;;;;;;5053023;28;20103;-85
2022/04/30 08:32:03;;;;;;;8.60;7.30;;;;;;;;;;5053300;28;20084;-84
2022/04/30 08:34:32;;;;;;;9.63;7.25;;;;;;;;;;5052809;28;20056;-84
2022/04/30 08:36:59;;;;;;;9.52;7.15;;;;;;;;;;5053007;28;20048;-86
2022/04/30 08:39:26;;;;;;;13.80;6.75;;;;;;;;;;5053071;28;20045;-88
2022/04/30 08:41:53;;;;;;;12.18;6.63;;;;;;;;;;5075872;28;20052;-85
2022/04/30 08:44:21;;;;;;;12.80;5.63;;;;;;;;;;5064398;28;20080;-86
2022/04/30 08:46:48;;;;;;;10.73;6.10;;;;;;;;;;5065434;28;20052;-85
2022/04/30 08:49:16;;;;;;;10.45;5.88;;;;;;;;;;5064631;28;20053;-86
2022/04/30 08:51:43;;;;;;;8.43;5.60;;;;;;;;;;5067048;28;20036;-84
2022/04/30 08:54:11;;;;;;;9.40;6.65;;;;;;;;;;5065259;28;20056;-85
2022/04/30 08:56:38;;;;;;;11.75;6.40;;;;;;;;;;5064599;28;20071;-86
2022/04/30 08:59:05;;;;;;;8.82;5.97;;;;;;;;;;5064854;28;20051;-84
2022/04/30 09:01:48;;;;;;;8.85;5.75;;;;;;;;;;5063151;28;20071;-85
2022/04/30 09:04:16;;;;;;;11.73;6.10;;;;;;;;;;5062987;28;20132;-85
2022/04/30 09:06:44;;;;;;;9.63;6.35;;;;;;;;;;5062629;28;20504;-83
2022/04/30 09:09:20;;;;;;;10.43;6.53;;;;;;;;;;5062699;28;20074;-84
2022/04/30 09:11:47;;;;;;;7.50;5.70;;;;;;;;;;5063773;28;20048;-85
2022/04/30 09:14:28;;;;;;;10.38;6.32;;;;;;;;;;5063195;28;20048;-85
2022/04/30 09:17:03;;;;;;;6.38;5.65;;;;;;;;;;5064006;28;20113;-84
2022/04/30 09:19:33;;;;;;;6.55;5.43;;;;;;;;;;5078204;28;20056;-85
2022/04/30 09:22:01;;;;;;;5.30;4.80;;;;;;;;;;5062823;28;20079;-85
2022/04/30 09:24:31;;;;;;;5.22;4.72;;;;;;;;;;5063606;28;20041;-85
2022/04/30 09:27:03;;;;;;;11.10;6.50;;;;;;;;;;5061922;28;20052;-82
2022/04/30 09:29:30;;;;;;;8.18;5.90;;;;;;;;;;5063137;28;20052;-83
2022/04/30 09:31:57;;;;;;;14.95;6.15;;;;;;;;;;5063787;28;20074;-85
2022/04/30 09:40:04;;;;;;;10.30;6.07;;;;;;;;;;5084713;28;20052;-83
2022/04/30 09:42:38;;;;;;;8.80;5.80;;;;;;;;;;5066318;28;20072;-83
2022/04/30 09:45:05;;;;;;;;;;;;;;;;;;5067878;28;20049;-82
2022/04/30 09:47:34;;;;;;;8.77;6.50;;;;;;;;;;5067880;28;20765;-82
2022/04/30 09:56:07;;;;;;;7.20;5.50;;;;;;;;;;5084914;28;20048;-81
2022/04/30 09:58:40;;;;;;;7.43;5.45;;;;;;;;;;5065361;28;20048;-81
2022/04/30 10:01:11;;;;;;;8.82;6.30;;;;;;;;;;5062937;28;20044;-81
2022/04/30 10:03:51;;;;;;;19.45;5.75;;;;;;;;;;5062333;28;20049;-81
2022/04/30 10:06:19;;;;;;;10.50;6.15;;;;;;;;;;5063814;28;20110;-82
2022/04/30 10:08:47;;;;;;;8.70;5.90;;;;;;;;;;5061561;28;20059;-81
2022/04/30 10:11:14;;;;;;;9.43;6.25;;;;;;;;;;5076969;28;20052;-80
2022/04/30 10:13:49;;;;;;;15.38;6.85;;;;;;;;;;5059169;28;20543;-79
2022/04/30 10:16:21;;;;;;;11.82;6.53;;;;;;;;;;5081719;28;20102;-80
2022/04/30 10:18:58;;;;;;;7.75;5.53;;;;;;;;;;5066460;28;20052;-81
2022/04/30 10:21:25;;;;;;;9.30;6.10;;;;;;;;;;5061555;28;20048;-82
2022/04/30 10:27:15;;;;;;;7.50;6.57;;;;;;;;;;5079441;28;20053;-81
2022/04/30 10:30:10;;;;;;;10.90;6.25;;;;;;;;;;5061624;28;20448;-82
2022/04/30 10:32:37;;;;;;;;;;;;;;;;;;5062600;28;20476;-81
2022/04/30 10:35:27;;;;;;;15.38;6.88;;;;;;;;;;5062904;28;19956;-81
2022/04/30 10:38:09;;;;;;;15.30;7.03;;;;;;;;;;5063416;28;20099;-82
2022/04/30 10:44:03;;;;;;;12.63;6.25;;;;;;;;;;5079999;28;20056;-82
2022/04/30 10:46:39;;;;;;;9.00;6.18;;;;;;;;;;5079100;28;20044;-82
2022/04/30 10:49:06;;;;;;;8.80;6.43;;;;;;;;;;5080671;28;20044;-81
2022/04/30 10:51:46;;;;;;;9.18;6.45;;;;;;;;;;5082705;28;20049;-82
2022/04/30 10:54:18;;;;;;;8.70;6.15;;;;;;;;;;5078187;28;20503;-82
2022/04/30 10:56:57;;;;;;;7.28;6.43;;;;;;;;;;5079288;28;20045;-82
2022/04/30 10:59:26;;;;;;;8.05;6.30;;;;;;;;;;5077720;28;20064;-82
2022/04/30 11:02:28;;;;;;;9.70;6.65;;;;;;;;;;5078609;28;20048;-82
2022/04/30 11:04:55;;;;;;;7.82;6.75;;;;;;;;;;5078168;28;20048;-81
2022/04/30 11:07:23;;;;;;;9.82;6.38;;;;;;;;;;5077870;28;20048;-81
2022/04/30 11:09:50;;;;;;;6.90;6.15;;;;;;;;;;5080215;28;20049;-81
2022/04/30 11:12:17;;;;;;;12.65;6.35;;;;;;;;;;5080486;28;20076;-81
2022/04/30 11:14:48;;;;;;;9.55;6.78;;;;;;;;;;5080204;28;20074;-82
2022/04/30 11:17:15;;;;;;;8.48;6.22;;;;;;;;;;5079150;28;20080;-81
2022/04/30 11:19:48;;;;;;;13.48;7.20;;;;;;;;;;5082110;28;20411;-81
2022/04/30 11:22:17;;;;;;;;;;;;;;;;;;5080398;28;20083;-82
2022/04/30 11:24:45;;;;;;;10.60;6.50;;;;;;;;;;5079332;28;20295;-82
2022/04/30 11:27:12;;;;;;;10.32;6.18;;;;;;;;;;5078480;28;20463;-82
2022/04/30 11:29:50;;;;;;;8.77;5.72;;;;;;;;;;5078164;28;20084;-81
2022/04/30 11:32:27;;;;;;;8.35;6.40;;;;;;;;;;5077408;28;20135;-83
2022/04/30 11:34:55;;;;;;;9.13;6.40;;;;;;;;;;5079652;28;20443;-82
2022/04/30 11:37:22;;;;;;;11.32;7.35;;;;;;;;;;5080767;28;20045;-81
2022/04/30 11:39:50;;;;;;;8.68;6.20;;;;;;;;;;5080335;28;20045;-82
2022/04/30 11:42:18;;;;;;;8.52;6.38;;;;;;;;;;5085323;28;20052;-82
2022/04/30 11:44:45;;;;;;;9.95;6.32;;;;;;;;;;5088270;28;20052;-82
2022/04/30 11:47:14;;;;;;;9.40;6.32;;;;;;;;;;5084477;28;20052;-81
2022/04/30 11:49:42;;;;;;;8.60;5.90;;;;;;;;;;5083729;28;20048;-82
2022/04/30 11:52:15;;;;;;;6.78;5.60;;;;;;;;;;5076918;28;20087;-82
2022/04/30 11:54:42;;;;;;;8.85;6.75;;;;;;;;;;5078556;28;20487;-81
2022/04/30 11:57:09;;;;;;;11.38;6.28;;;;;;;;;;5077546;28;20060;-81
2022/04/30 11:59:38;;;;;;;8.52;6.10;;;;;;;;;;5078369;28;20533;-86
2022/04/30 12:02:06;;;;;;;7.72;5.95;;;;;;;;;;5080792;28;20044;-83
2022/04/30 12:04:36;;;;;;;7.78;5.78;;;;;;;;;;5081013;28;20054;-85
2022/04/30 12:07:05;;;;;;;12.30;5.57;;;;;;;;;;5080168;28;20048;-85
2022/04/30 12:09:33;;;;;;;10.50;5.70;;;;;;;;;;5078881;28;20049;-85
2022/04/30 12:12:01;;;;;;;6.60;5.63;;;;;;;;;;5080024;28;20052;-86
2022/04/30 12:14:29;;;;;;;12.55;5.70;;;;;;;;;;5079739;28;20052;-84
2022/04/30 12:16:57;;;;;;;10.27;5.60;;;;;;;;;;5080077;28;20503;-85
2022/04/30 12:25:05;;;;;;;8.30;6.05;;;;;;;;;;5083553;28;20408;-84
2022/04/30 12:27:33;;;;;;;8.73;5.82;;;;;;;;;;5080956;28;20060;-84
2022/04/30 12:30:01;;;;;;;14.77;10.50;;;;;;;;;;5080906;28;20056;-86
2022/04/30 12:32:28;;;;;;;51.00;35.42;;;;;;;;;;5081164;28;20071;-83
2022/04/30 12:34:57;;;;;;;21.85;14.82;;;;;;;;;;5080677;28;20116;-85
2022/04/30 12:37:33;;;;;;;57.00;44.38;;;;;;;;;;5080925;28;20040;-86
2022/04/30 12:40:08;;;;;;;26.27;23.23;;;;;;;;;;5080136;28;20060;-84
2022/04/30 12:42:37;;;;;;;9.02;7.78;;;;;;;;;;5062415;28;20044;-84
2022/04/30 12:45:05;;;;;;;46.35;40.78;;;;;;;;;;5042018;28;20064;-85
2022/04/30 12:47:32;;;;;;;12.77;6.95;;;;;;;;;;5044272;28;20389;-85
2022/04/30 12:49:59;;;;;;;9.13;5.72;;;;;;;;;;5062329;28;20523;-86
2022/04/30 12:52:27;;;;;;;7.57;5.70;;;;;;;;;;5045247;28;20056;-85
2022/04/30 12:54:54;;;;;;;8.50;5.50;;;;;;;;;;5045289;28;20072;-85
2022/04/30 12:57:21;;;;;;;10.57;5.95;;;;;;;;;;5037913;28;20491;-84
2022/04/30 12:59:50;;;;;;;6.78;5.40;;;;;;;;;;5036383;28;20420;-83
2022/04/30 13:02:20;;;;;;;6.22;5.20;;;;;;;;;;5036031;28;20492;-83
2022/04/30 13:04:48;;;;;;;7.35;5.68;;;;;;;;;;5035973;28;20049;-83
2022/04/30 13:07:15;;;;;;;8.25;5.63;;;;;;;;;;5035675;28;20484;-83
2022/04/30 13:15:14;;;;;;;7.60;5.53;;;;;;;;;;5056670;28;20049;-85
2022/04/30 13:17:41;;;;;;;7.05;5.43;;;;;;;;;;5056249;28;20481;-83
2022/04/30 13:20:10;;;;;;;6.60;5.45;;;;;;;;;;5038041;28;20084;-80
2022/04/30 13:22:38;;;;;;;9.88;5.97;;;;;;;;;;5036950;28;20132;-80
2022/04/30 13:25:06;;;;;;;7.03;5.43;;;;;;;;;;5036575;28;20053;-81
2022/04/30 13:27:34;;;;;;;9.50;5.90;;;;;;;;;;5055035;28;20500;-81
2022/04/30 13:30:01;;;;;;;8.98;5.32;;;;;;;;;;5054631;28;20049;-80
2022/04/30 13:32:28;;;;;;;6.70;5.05;;;;;;;;;;5036670;28;20064;-82
2022/04/30 13:34:56;;;;;;;9.75;5.13;;;;;;;;;;5036787;28;20129;-81
2022/04/30 13:37:23;;;;;;;6.10;5.10;;;;;;;;;;5056006;28;20049;-81
2022/04/30 13:39:50;;;;;;;5.82;4.80;;;;;;;;;;5037469;28;20087;-81
2022/04/30 13:42:17;;;;;;;5.20;4.60;;;;;;;;;;5053620;28;20474;-81
2022/04/30 13:44:44;;;;;;;5.30;4.75;;;;;;;;;;5036474;28;20082;-80
2022/04/30 13:47:11;;;;;;;5.88;4.97;;;;;;;;;;5036439;28;20049;-80
2022/04/30 13:49:40;;;;;;;8.27;4.40;;;;;;;;;;5037698;28;20049;-81
2022/04/30 13:52:09;;;;;;;6.60;4.80;;;;;;;;;;5038255;28;20071;-81
2022/04/30 13:54:40;;;;;;;5.53;4.22;;;;;;;;;;5040188;28;20052;-82
2022/04/30 13:57:07;;;;;;;4.38;3.95;;;;;;;;;;5039291;28;20048;-82
2022/04/30 13:59:35;;;;;;;7.68;4.57;;;;;;;;;;5040269;28;20077;-83
2022/04/30 14:02:04;;;;;;;9.50;4.78;;;;;;;;;;5039538;28;20129;-80
2022/04/30 14:04:34;;;;;;;8.48;4.70;;;;;;;;;;5055761;28;20583;-81
2022/04/30 14:07:02;;;;;;;5.43;4.40;;;;;;;;;;5038508;28;20056;-80
2022/04/30 14:09:30;;;;;;;8.63;4.53;;;;;;;;;;5038200;28;20511;-80
2022/04/30 14:11:57;;;;;;;10.57;4.70;;;;;;;;;;5037754;28;20052;-79
2022/04/30 14:19:58;;;;;;;4.88;3.78;;;;;;;;;;5050695;28;20112;-82
2022/04/30 14:22:25;;;;;;;5.45;4.35;;;;;;;;;;5028072;28;20052;-83
2022/04/30 14:24:53;;;;;;;7.38;4.68;;;;;;;;;;5030624;28;20094;-83
2022/04/30 14:27:20;;;;;;;7.45;4.60;;;;;;;;;;5031051;28;20186;-82
2022/04/30 14:29:47;;;;;;;7.95;5.47;;;;;;;;;;5027344;28;20073;-82
2022/04/30 14:32:15;;;;;;;6.95;4.90;;;;;;;;;;5036224;28;20124;-83
2022/04/30 14:34:42;;;;;;;7.85;4.97;;;;;;;;;;5036565;28;20091;-83
2022/04/30 14:37:10;;;;;;;5.40;4.90;;;;;;;;;;5035918;28;20077;-82
2022/04/30 14:39:40;;;;;;;8.02;5.10;;;;;;;;;;5035621;28;20081;-81
2022/04/30 14:42:07;;;;;;;6.82;5.57;;;;;;;;;;5035461;28;20077;-83
2022/04/30 14:44:34;;;;;;;5.68;4.43;;;;;;;;;;5037434;28;20053;-82
2022/04/30 14:47:02;;;;;;;7.57;4.15;;;;;;;;;;5039370;28;20045;-86
2022/04/30 14:49:50;;;;;;;7.60;5.10;;;;;;;;;;5025207;28;20049;-83
2022/04/30 14:52:18;;;;;;;5.30;4.35;;;;;;;;;;5038025;28;20133;-82
2022/04/30 14:54:45;;;;;;;8.88;5.03;;;;;;;;;;5057396;28;20123;-83
2022/04/30 14:57:12;;;;;;;5.57;4.95;;;;;;;;;;5028942;28;20125;-84
2022/04/30 14:59:39;;;;;;;5.47;4.53;;;;;;;;;;5048417;28;20049;-84
2022/04/30 15:02:07;;;;;;;7.75;4.78;;;;;;;;;;5033981;28;20052;-84
2022/04/30 15:04:34;;;;;;;8.65;5.28;;;;;;;;;;5032747;28;20052;-83
2022/04/30 15:07:02;;;;;;;14.80;10.80;;;;;;;;;;5051039;28;20049;-85
2022/04/30 15:09:29;;;;;;;10.43;5.90;;;;;;;;;;5040065;28;20053;-83
2022/04/30 15:11:56;;;;;;;7.28;5.15;;;;;;;;;;5042768;28;20092;-84
2022/04/30 15:14:23;;;;;;;8.98;5.07;;;;;;;;;;5043211;28;20053;-83
2022/04/30 15:16:50;;;;;;;7.85;4.70;;;;;;;;;;5060955;28;20049;-84
2022/04/30 15:19:18;;;;;;;6.53;4.93;;;;;;;;;;5042945;28;20135;-84
2022/04/30 15:21:45;;;;;;;7.25;4.90;;;;;;;;;;5043614;28;20155;-84
2022/04/30 15:24:20;;;;;;;5.57;4.65;;;;;;;;;;5044486;28;20109;-84
2022/04/30 15:26:47;;;;;;;7.88;4.60;;;;;;;;;;5043326;28;20052;-84
2022/04/30 15:29:15;;;;;;;7.70;5.03;;;;;;;;;;5043326;28;20089;-84
2022/04/30 15:31:42;;;;;;;7.28;5.05;;;;;;;;;;5061774;28;20087;-85
2022/04/30 15:34:09;;;;;;;8.32;4.70;;;;;;;;;;5061754;28;20143;-84
2022/04/30 15:36:40;;;;;;;7.55;5.55;;;;;;;;;;5044894;28;20041;-84
2022/04/30 15:39:08;;;;;;;5.25;4.05;;;;;;;;;;5044974;28;20073;-85
2022/04/30 15:41:36;;;;;;;6.55;4.32;;;;;;;;;;5071243;28;20071;-85
2022/04/30 15:44:03;;;;;;;9.02;5.38;;;;;;;;;;5064222;28;20048;-86
2022/04/30 15:52:03;;;;;;;5.60;4.13;;;;;;;;;;5075743;28;20044;-85